createdAt,value
2022-08-17T00:00:40.542Z,17.57
2022-08-17T00:05:48.668Z,17.7
2022-08-17T00:10:56.632Z,17.72
2022-08-17T00:16:04.698Z,17.36
2022-08-17T00:21:11.238Z,17.01
2022-08-17T00:26:19.597Z,16.94
2022-08-17T00:31:28.034Z,16.92
2022-08-17T00:36:36.927Z,17.24
2022-08-17T00:41:44.548Z,17.38
2022-08-17T00:46:51.735Z,17.36
2022-08-17T00:51:59.442Z,17.19
2022-08-17T00:57:07.047Z,17.26
2022-08-17T01:02:15.887Z,17.54
2022-08-17T01:07:23.435Z,17.38
2022-08-17T01:12:31.492Z,17.26
2022-08-17T01:17:38.813Z,17.44
2022-08-17T01:22:47.761Z,17.33
2022-08-17T01:37:06.313Z,16.94
2022-08-17T01:42:12.796Z,16.58
2022-08-17T01:47:22.329Z,16.26
2022-08-17T01:52:28.382Z,16.2
2022-08-17T01:57:36.215Z,16.23
2022-08-17T02:02:43.433Z,16.01
2022-08-17T02:07:50.569Z,15.88
2022-08-17T02:12:58.785Z,15.7
2022-08-17T02:18:06.306Z,15.54
2022-08-17T02:23:13.498Z,15.79
2022-08-17T02:28:21.127Z,15.67
2022-08-17T02:33:27.901Z,15.44
2022-08-17T02:38:36.894Z,15.28
2022-08-17T02:43:44.236Z,15.14
2022-08-17T02:48:52.342Z,14.9
2022-08-17T02:53:59.964Z,14.74
2022-08-17T02:59:07.514Z,14.65
2022-08-17T03:04:14.358Z,14.65
2022-08-17T03:09:22.323Z,14.64
2022-08-17T03:14:30.274Z,14.59
2022-08-17T03:19:37.321Z,14.59
2022-08-17T03:24:44.631Z,14.78
2022-08-17T03:29:52.212Z,15.1
2022-08-17T03:35:00.166Z,14.98
2022-08-17T03:40:07.291Z,14.72
2022-08-17T03:45:14.486Z,14.56
2022-08-17T03:50:22.870Z,14.35
2022-08-17T03:55:31.018Z,14.26
2022-08-17T04:00:37.334Z,14.22
2022-08-17T04:05:45.174Z,14.2
2022-08-17T04:10:54.045Z,14.19
2022-08-17T04:16:02.315Z,14.13
2022-08-17T04:21:10.132Z,14.22
2022-08-17T04:26:17.996Z,15.05
2022-08-17T04:31:25.635Z,16.1
2022-08-17T04:36:34.704Z,17.15
2022-08-17T04:41:44.265Z,18.2
2022-08-17T04:46:51.688Z,19.25
2022-08-17T04:52:07.260Z,20.16
2022-08-17T04:57:15.383Z,21.08
2022-08-17T05:02:22.314Z,21.22
2022-08-17T05:07:29.486Z,21.12
2022-08-17T05:12:37.384Z,21.12
2022-08-17T05:17:44.770Z,21.3
2022-08-17T05:22:52.496Z,21.47
2022-08-17T05:27:59.610Z,22.21
2022-08-17T05:33:07.869Z,22.76
2022-08-17T05:38:15.857Z,23.28
2022-08-17T05:43:24.039Z,23.44
2022-08-17T05:48:38.086Z,23.21
2022-08-17T05:53:45.853Z,23.02
2022-08-17T05:58:54.063Z,22.86
2022-08-17T06:04:01.890Z,23.21
2022-08-17T06:09:09.189Z,23.33
2022-08-17T06:14:16.984Z,23.51
2022-08-17T06:19:23.933Z,23.8
2022-08-17T06:24:31.526Z,23.93
2022-08-17T06:29:38.146Z,24.24
2022-08-17T06:34:45.749Z,24.54
2022-08-17T06:39:53.779Z,25.0
2022-08-17T06:45:00.393Z,25.2
2022-08-17T06:50:07.619Z,25.38
2022-08-17T06:55:15.281Z,25.61
2022-08-17T07:00:22.883Z,26.01
2022-08-17T07:05:31.092Z,27.36
2022-08-17T07:15:40.968Z,31.52
2022-08-17T07:16:43.776Z,31.96
2022-08-17T07:21:49.870Z,33.77
2022-08-17T07:26:57.577Z,35.54
2022-08-17T07:32:06.524Z,37.04
2022-08-17T07:37:13.841Z,38.17
2022-08-17T07:42:22.814Z,38.94
2022-08-17T07:47:30.172Z,39.84
2022-08-17T07:52:37.932Z,40.08
2022-08-17T07:57:45.004Z,40.62
2022-08-17T08:02:53.337Z,41.54
2022-08-17T08:08:02.947Z,42.33
2022-08-17T08:13:11.185Z,42.56
2022-08-17T08:23:47.711Z,44.06
2022-08-17T08:28:55.833Z,44.33
2022-08-17T08:34:03.452Z,44.92
2022-08-17T08:39:12.736Z,45.78
2022-08-17T08:44:20.655Z,46.64
2022-08-17T08:49:28.882Z,46.6
2022-08-17T08:54:37.288Z,46.94
2022-08-17T08:59:45.819Z,47.7
2022-08-17T09:04:54.240Z,47.44
2022-08-17T09:10:01.901Z,47.74
2022-08-17T09:15:09.865Z,48.11
2022-08-17T09:20:16.895Z,48.4
2022-08-17T09:25:24.359Z,48.75
2022-08-17T09:30:32.109Z,48.85
2022-08-17T09:35:40.385Z,47.56
2022-08-17T09:40:48.195Z,46.6
2022-08-17T09:45:56.613Z,47.42
2022-08-17T09:51:04.799Z,47.07
2022-08-17T09:56:12.410Z,47.9
2022-08-17T10:01:20.286Z,48.46
2022-08-17T10:06:27.414Z,48.35
2022-08-17T10:11:35.584Z,48.14
2022-08-17T10:16:43.713Z,48.58
2022-08-17T10:21:52.137Z,48.91
2022-08-17T10:26:59.014Z,48.68
2022-08-17T10:32:06.141Z,48.9
2022-08-17T10:37:13.811Z,49.6
2022-08-17T10:42:22.159Z,50.35
2022-08-17T10:47:29.250Z,49.92
2022-08-17T10:52:38.077Z,50.24
2022-08-17T10:57:45.594Z,51.22
2022-08-17T11:02:54.934Z,50.86
2022-08-17T11:08:02.169Z,49.91
2022-08-17T11:13:09.739Z,49.94
2022-08-17T11:18:18.364Z,50.74
2022-08-17T11:23:26.301Z,49.96
2022-08-17T11:28:33.536Z,50.09
2022-08-17T11:33:41.567Z,51.08
2022-08-17T11:38:50.330Z,51.34
2022-08-17T11:43:58.295Z,51.42
2022-08-17T11:49:06.007Z,50.64
2022-08-17T11:54:14.620Z,49.3
2022-08-17T11:59:27.811Z,49.44
2022-08-17T12:04:34.406Z,49.22
2022-08-17T12:09:42.280Z,48.12
2022-08-17T12:14:48.691Z,46.92
2022-08-17T12:19:55.413Z,45.82
2022-08-17T12:25:02.496Z,43.98
2022-08-17T12:30:10.807Z,43.12
2022-08-17T12:35:17.678Z,42.03
2022-08-17T12:40:24.541Z,41.54
2022-08-17T12:45:32.058Z,40.79
2022-08-17T12:50:39.826Z,39.72
2022-08-17T12:55:46.260Z,39.51
2022-08-17T13:00:54.939Z,39.26
2022-08-17T13:06:01.861Z,38.76
2022-08-17T13:11:09.053Z,38.22
2022-08-17T13:16:16.928Z,37.9
2022-08-17T13:21:25.254Z,37.59
2022-08-17T13:26:33.546Z,37.58
2022-08-17T13:31:41.800Z,37.52
2022-08-17T13:36:49.630Z,37.59
2022-08-17T13:41:56.041Z,37.27
2022-08-17T13:47:03.921Z,37.11
2022-08-17T13:52:12.519Z,36.89
2022-08-17T13:57:20.243Z,37.04
2022-08-17T14:02:27.451Z,37.14
2022-08-17T14:07:34.325Z,37.04
2022-08-17T14:12:42.832Z,36.77
2022-08-17T14:17:50.533Z,37.13
2022-08-17T14:22:58.496Z,37.16
2022-08-17T14:28:05.354Z,37.06
2022-08-17T14:33:13.355Z,36.56
2022-08-17T14:38:22.123Z,37.06
2022-08-17T14:43:29.498Z,37.92
2022-08-17T14:48:36.745Z,37.54
2022-08-17T14:53:45.047Z,38.4
2022-08-17T14:58:52.779Z,38.48
2022-08-17T15:04:04.787Z,37.94
2022-08-17T15:09:12.505Z,37.52
2022-08-17T15:14:19.734Z,37.76
2022-08-17T15:19:27.953Z,39.79
2022-08-17T15:24:34.778Z,40.19
2022-08-17T15:29:42.721Z,37.9
2022-08-17T15:34:51.026Z,37.98
2022-08-17T15:39:58.924Z,38.42
2022-08-17T15:45:06.761Z,36.97
2022-08-17T15:50:19.662Z,37.42
2022-08-17T15:55:27.191Z,37.15
2022-08-17T16:00:34.568Z,36.27
2022-08-17T16:05:41.054Z,34.96
2022-08-17T16:10:49.852Z,34.4
2022-08-17T16:15:56.447Z,33.83
2022-08-17T16:21:04.454Z,33.16
2022-08-17T16:26:12.627Z,32.74
2022-08-17T16:31:21.271Z,32.48
2022-08-17T16:36:28.911Z,32.28
2022-08-17T16:41:37.710Z,32.08
2022-08-17T16:46:44.342Z,31.66
2022-08-17T16:51:52.542Z,31.35
2022-08-17T16:57:00.635Z,31.07
2022-08-17T17:02:08.562Z,30.84
2022-08-17T17:07:15.867Z,30.64
2022-08-17T17:12:23.683Z,30.46
2022-08-17T17:17:31.683Z,30.22
2022-08-17T17:22:39.505Z,29.94
2022-08-17T17:27:46.860Z,29.61
2022-08-17T17:32:54.659Z,29.36
2022-08-17T17:38:02.558Z,29.11
2022-08-17T17:43:09.700Z,28.79
2022-08-17T17:48:16.987Z,28.35
2022-08-17T17:53:25.042Z,27.97
2022-08-17T17:58:32.509Z,27.69
2022-08-17T18:03:40.182Z,27.4
2022-08-17T18:08:47.561Z,27.12
2022-08-17T18:13:55.689Z,26.84
2022-08-17T18:19:03.295Z,26.46
2022-08-17T18:24:10.459Z,26.16
2022-08-17T18:29:17.749Z,25.97
2022-08-17T18:34:24.586Z,25.64
2022-08-17T18:39:33.282Z,25.24
2022-08-17T18:44:40.702Z,24.76
2022-08-17T18:49:48.191Z,24.57
2022-08-17T18:54:56.722Z,24.21
2022-08-17T19:00:10.786Z,23.96
2022-08-17T19:05:17.773Z,23.56
2022-08-17T19:10:24.895Z,23.16
2022-08-17T19:15:31.446Z,22.93
2022-08-17T19:20:38.657Z,22.72
2022-08-17T19:25:46.899Z,22.49
2022-08-17T19:30:53.697Z,22.21
2022-08-17T19:36:01.443Z,21.96
2022-08-17T19:41:10.197Z,21.76
2022-08-17T19:46:17.407Z,21.64
2022-08-17T19:51:26.760Z,21.52
2022-08-17T19:56:34.182Z,21.3
2022-08-17T20:01:42.616Z,21.23
2022-08-17T20:06:52.557Z,21.2
2022-08-17T20:12:00.183Z,21.03
2022-08-17T20:17:06.814Z,20.82
2022-08-17T20:22:14.011Z,20.58
2022-08-17T20:27:22.692Z,20.46
2022-08-17T20:32:30.619Z,20.46
2022-08-17T20:37:37.603Z,20.82
2022-08-17T20:42:45.050Z,20.96
2022-08-17T20:47:53.105Z,20.78
2022-08-17T20:53:01.054Z,21.1
2022-08-17T20:58:09.314Z,21.46
2022-08-17T21:03:16.091Z,21.42
2022-08-17T21:08:23.894Z,21.1
2022-08-17T21:13:31.769Z,20.9
2022-08-17T21:18:39.402Z,20.6
2022-08-17T21:23:47.487Z,20.3
2022-08-17T21:28:54.651Z,20.0
2022-08-17T21:34:01.857Z,19.78
2022-08-17T21:39:09.924Z,19.61
2022-08-17T21:44:19.913Z,19.46
2022-08-17T21:49:26.655Z,19.3
2022-08-17T21:54:33.859Z,19.26
2022-08-17T21:59:41.707Z,19.32
2022-08-17T22:04:49.994Z,19.28
2022-08-17T22:09:58.171Z,19.26
2022-08-17T22:15:05.956Z,19.09
2022-08-17T22:20:14.010Z,19.01
2022-08-17T22:25:22.542Z,19.06
2022-08-17T22:30:29.374Z,18.98
2022-08-17T22:35:37.022Z,18.92
2022-08-17T22:40:45.384Z,18.83
2022-08-17T22:45:53.739Z,18.72
2022-08-17T22:51:01.939Z,18.62
2022-08-17T22:56:09.217Z,18.6
2022-08-17T23:01:16.416Z,18.56
2022-08-17T23:06:23.455Z,18.5
2022-08-17T23:11:31.992Z,18.41
2022-08-17T23:16:40.578Z,18.3
2022-08-17T23:21:48.078Z,18.18
2022-08-17T23:26:55.856Z,18.08
2022-08-17T23:32:04.260Z,17.98
2022-08-17T23:37:11.341Z,17.92
2022-08-17T23:42:19.707Z,17.98
2022-08-17T23:47:27.820Z,17.98
2022-08-17T23:52:35.858Z,18.03
2022-08-17T23:57:44.135Z,18.01
